Time;durP1;ratioP1;P1;durP2;ratioP2;P2;SDS_P1;SDS_P2;PMS_P1;PMS_P2;Temp;Humidity;BMP_temperature;BMP_pressure;BME280_temperature;BME280_humidity;BME280_pressure;Samples;Min_cycle;Max_cycle;Signal;HPM_P1;HPM_P2
2022/06/27 00:03:14;;;;;;;5.25;1.77;;;;;;;21.29;79.39;101349.91;20538761;28;20516;-67
2022/06/27 00:13:36;;;;;;;2.38;1.90;;;;;;;21.07;83.89;101337.16;20522788;28;20063;-67
2022/06/27 00:23:58;;;;;;;3.20;2.10;;;;;;;20.92;83.34;101351.94;20513308;28;20706;-67
2022/06/27 00:34:19;;;;;;;4.47;2.30;;;;;;;20.68;84.29;101341.03;20525210;28;20047;-67
2022/06/27 00:44:42;;;;;;;4.05;2.67;;;;;;;20.32;87.58;101358.88;20516882;28;20389;-68
2022/06/27 00:55:07;;;;;;;4.63;1.70;;;;;;;19.83;88.77;101377.72;20512795;28;20050;-66
2022/06/27 01:05:28;;;;;;;5.22;2.80;;;;;;;19.64;87.41;101367.22;20543946;28;20047;-67
2022/06/27 01:15:50;;;;;;;2.05;1.33;;;;;;;19.54;89.65;101361.09;20554516;28;20039;-69
2022/06/27 01:26:12;;;;;;;1.88;1.50;;;;;;;19.19;89.16;101329.16;20550685;28;20047;-67
2022/06/27 01:36:43;;;;;;;1.92;1.70;;;;;;;18.99;89.62;101364.47;20530831;28;20046;-67
2022/06/27 01:47:08;;;;;;;3.72;1.98;;;;;;;18.89;90.84;101374.22;20542114;28;20066;-67
2022/06/27 01:57:30;;;;;;;5.32;2.13;;;;;;;18.86;91.09;101398.28;20540538;28;20051;-66
2022/06/27 02:07:52;;;;;;;3.72;1.73;;;;;;;18.81;88.87;101376.69;20532529;28;20047;-68
2022/06/27 02:18:14;;;;;;;2.08;1.70;;;;;;;18.85;90.27;101335.81;20533372;28;20047;-67
2022/06/27 02:28:36;;;;;;;4.10;1.90;;;;;;;18.72;91.77;101319.41;20528820;28;20043;-67
2022/06/27 02:38:59;;;;;;;3.13;1.38;;;;;;;18.65;90.78;101341.25;20539820;28;20050;-67
2022/06/27 02:49:21;;;;;;;2.35;1.48;;;;;;;18.55;91.86;101343.88;20539374;28;20049;-66
2022/06/27 02:59:45;;;;;;;2.10;1.73;;;;;;;18.59;87.96;101337.34;20544922;28;20090;-67
2022/06/27 03:10:09;;;;;;;5.10;1.30;;;;;;;18.59;89.76;101350.56;20537105;28;20050;-66
2022/06/27 03:20:31;;;;;;;2.20;1.40;;;;;;;18.55;88.44;101391.41;20531297;28;20497;-66
2022/06/27 03:30:52;;;;;;;3.85;2.03;;;;;;;18.54;90.32;101395.00;20536684;28;20684;-67
2022/06/27 03:41:14;;;;;;;3.78;1.98;;;;;;;18.40;92.11;101347.88;20541520;28;20452;-66
2022/06/27 03:51:35;;;;;;;;;;;;;;;18.24;94.24;101330.03;20535171;28;20059;-67
2022/06/27 04:01:57;;;;;;;;;;;;;;;18.08;94.06;101305.94;20551876;28;19941;-67
2022/06/27 04:12:18;;;;;;;;;;;;;;;17.86;91.88;101287.69;20535064;28;19957;-67
2022/06/27 04:22:40;;;;;;;;;;;;;;;17.73;98.27;101290.53;20534795;28;19930;-67
2022/06/27 04:33:01;;;;;;;;;;;;;;;17.65;94.35;101282.47;20525281;28;20398;-66
2022/06/27 04:43:26;;;;;;;;;;;;;;;17.56;98.36;101256.06;20515638;28;19933;-66
2022/06/27 04:53:48;;;;;;;;;;;;;;;17.53;97.96;101245.78;20524907;28;19922;-66
2022/06/27 05:04:09;;;;;;;;;;;;;;;17.51;100.00;101279.34;20526387;28;19922;-66
2022/06/27 05:14:31;;;;;;;;;;;;;;;17.54;97.57;101263.25;20519376;28;20085;-65
2022/06/27 05:24:52;;;;;;;;;;;;;;;17.49;98.67;101218.00;20516453;28;19926;-65
2022/06/27 05:35:14;;;;;;;;;;;;;;;17.55;98.75;101271.03;20529516;28;19922;-65
2022/06/27 05:45:35;;;;;;;;;;;;;;;17.55;100.00;101322.94;20552201;28;19937;-65
2022/06/27 05:55:57;;;;;;;;;;;;;;;17.63;97.17;101302.00;20563515;28;20017;-67
2022/06/27 06:06:19;;;;;;;;;;;;;;;17.56;97.33;101319.34;20524555;28;19928;-67
2022/06/27 06:16:40;;;;;;;;;;;;;;;17.59;99.40;101295.34;20522925;28;19966;-65
2022/06/27 06:27:02;;;;;;;;;;;;;;;17.56;99.64;101292.97;20531102;28;19929;-66
2022/06/27 06:37:23;;;;;;;;;;;;;;;17.59;99.70;101300.63;20519589;28;19926;-66
2022/06/27 06:47:46;;;;;;;;;;;;;;;17.63;99.41;101279.13;20581027;28;20423;-65
2022/06/27 06:58:08;;;;;;;;;;;;;;;17.70;99.22;101263.59;20556024;28;19926;-65
2022/06/27 07:08:33;;;;;;;;;;;;;;;17.75;98.34;101262.22;20528634;28;19922;-65
2022/06/27 07:18:55;;;;;;;;;;;;;;;17.96;98.94;101280.63;20525979;28;19926;-65
2022/06/27 07:29:17;;;;;;;;;;;;;;;18.04;98.08;101249.97;20518626;28;20371;-65
2022/06/27 07:39:38;;;;;;;;;;;;;;;18.24;97.65;101270.19;20513334;28;19922;-65
2022/06/27 07:50:00;;;;;;;;;;;;;;;18.30;97.72;101300.47;20512776;28;20457;-65
2022/06/27 08:00:22;;;;;;;;;;;;;;;18.36;96.31;101289.34;20512211;28;19980;-65
2022/06/27 08:10:43;;;;;;;;;;;;;;;18.47;98.46;101283.00;20515937;28;19922;-65
2022/06/27 08:21:05;;;;;;;;;;;;;;;18.55;98.39;101283.13;20529127;28;20275;-64
2022/06/27 08:31:27;;;;;;;;;;;;;;;18.58;98.70;101314.53;20529318;28;19926;-62
2022/06/27 08:41:48;;;;;;;;;;;;;;;18.78;98.29;101302.16;20512068;28;20025;-63
2022/06/27 08:52:10;;;;;;;;;;;;;;;18.92;99.11;101225.13;20503412;28;20453;-62
2022/06/27 09:02:44;;;;;;;;;;;;;;;19.17;98.21;101233.31;20527300;28;20630;-63
2022/06/27 09:13:08;;;;;;;3.83;2.70;;;;;;;19.35;94.40;101273.03;20520895;28;19926;-64
2022/06/27 09:23:49;;;;;;;4.55;2.90;;;;;;;19.29;93.10;101337.91;20543035;28;20543;-65
2022/06/27 09:34:23;;;;;;;4.45;2.78;;;;;;;19.22;96.62;101334.16;20546734;28;20432;-64
2022/06/27 09:44:45;;;;;;;3.92;3.13;;;;;;;19.26;91.90;101345.28;20534738;28;20043;-64
2022/06/27 09:55:08;;;;;;;4.38;3.10;;;;;;;19.21;92.18;101335.13;20530592;28;20066;-67
2022/06/27 10:05:30;;;;;;;3.42;2.53;;;;;;;19.28;94.75;101322.19;20535183;28;20097;-64
2022/06/27 10:15:53;;;;;;;7.55;3.08;;;;;;;19.42;91.81;101335.78;20545739;28;20051;-64
2022/06/27 10:26:41;;;;;;;3.33;2.60;;;;;;;19.45;96.04;101377.84;20529340;28;20391;-64
2022/06/27 10:37:19;;;;;;;2.95;2.33;;;;;;;19.48;95.56;101359.03;20550497;28;20078;-64
2022/06/27 10:47:41;;;;;;;7.85;2.65;;;;;;;19.41;93.54;101334.13;20548788;28;20096;-62
2022/06/27 10:58:23;;;;;;;4.40;2.17;;;;;;;19.52;96.79;101336.59;20533978;28;20479;-63
2022/06/27 11:08:49;;;;;;;;;;;;;;;19.45;94.88;101356.66;20524832;28;20134;-63
2022/06/27 11:40:40;;;;;;;;;;;;;;;19.19;100.00;101397.91;20553239;28;19926;-64
2022/06/27 11:51:02;;;;;;;;;;;;;;;19.12;98.84;101365.06;20514692;28;19950;-66
2022/06/27 12:01:24;;;;;;;;;;;;;;;19.22;100.00;101376.44;20533246;28;19945;-65
2022/06/27 12:11:50;;;;;;;;;;;;;;;19.29;100.00;101369.63;20519604;28;20387;-67
2022/06/27 12:22:12;;;;;;;;;;;;;;;19.27;100.00;101371.59;20535797;28;19947;-64
2022/06/27 12:32:54;;;;;;;;;;;;;;;19.34;100.00;101354.19;20527813;28;19950;-64
2022/06/27 12:43:15;;;;;;;;;;;;;;;19.59;99.65;101361.50;20529742;28;20284;-63
2022/06/27 12:53:37;;;;;;;;;;;;;;;19.61;99.89;101399.25;20561713;28;19937;-64
2022/06/27 13:03:58;;;;;;;;;;;;;;;19.55;98.14;101383.94;20530577;28;19950;-64
2022/06/27 13:14:20;;;;;;;;;;;;;;;19.41;100.00;101394.94;20537716;28;19962;-63
2022/06/27 13:24:42;;;;;;;;;;;;;;;19.35;98.89;101415.84;20519040;28;20599;-63
2022/06/27 13:35:05;;;;;;;;;;;;;;;19.37;99.20;101419.19;20523492;28;20392;-62
2022/06/27 13:45:30;;;;;;;;;;;;;;;19.34;100.00;101401.78;20572231;28;19981;-63
2022/06/27 13:55:51;;;;;;;;;;;;;;;19.24;100.00;101406.22;20532517;28;19926;-63
2022/06/27 14:16:53;;;;;;;;;;;;;;;19.30;100.00;101413.63;20548269;28;19941;-62
2022/06/27 14:27:15;;;;;;;;;;;;;;;19.27;100.00;101437.69;20532204;28;19934;-66
2022/06/27 14:37:36;;;;;;;;;;;;;;;19.20;100.00;101454.25;20557666;28;19942;-65
2022/06/27 14:47:58;;;;;;;;;;;;;;;19.14;100.00;101458.28;20535432;28;19927;-65
2022/06/27 14:58:19;;;;;;;;;;;;;;;19.11;100.00;101455.06;20522427;28;19927;-64
2022/06/27 15:08:41;;;;;;;;;;;;;;;18.96;100.00;101470.47;20523364;28;19926;-62
2022/06/27 15:19:03;;;;;;;;;;;;;;;18.86;100.00;101485.47;20523171;28;20316;-63
2022/06/27 15:29:25;;;;;;;;;;;;;;;18.90;100.00;101459.59;20517084;28;19926;-63
2022/06/27 15:39:46;;;;;;;;;;;;;;;18.86;100.00;101498.69;20527040;28;19937;-62
2022/06/27 15:50:08;;;;;;;;;;;;;;;18.85;100.00;101485.59;20534748;28;19927;-65
2022/06/27 16:00:31;;;;;;;;;;;;;;;18.93;100.00;101462.78;20523054;28;19950;-63
2022/06/27 16:10:52;;;;;;;;;;;;;;;19.01;100.00;101470.91;20528074;28;19930;-62
2022/06/27 16:21:16;;;;;;;;;;;;;;;19.10;100.00;101451.56;20517468;28;19954;-66
2022/06/27 16:31:40;;;;;;;;;;;;;;;19.02;100.00;101485.78;20514903;28;20294;-66
2022/06/27 16:52:43;;;;;;;;;;;;;;;18.99;100.00;101528.34;20544829;28;19933;-64
2022/06/27 17:03:06;;;;;;;;;;;;;;;19.02;100.00;101530.72;20520651;28;19926;-63
2022/06/27 17:13:28;;;;;;;;;;;;;;;19.05;99.83;101545.47;20512692;28;19966;-67
2022/06/27 17:23:49;;;;;;;;;;;;;;;19.08;100.00;101538.09;20546235;28;19930;-65
2022/06/27 17:34:15;;;;;;;;;;;;;;;19.16;100.00;101551.50;20548078;28;20661;-65
2022/06/27 17:44:36;;;;;;;;;;;;;;;19.11;100.00;101558.97;20523519;28;19933;-64
2022/06/27 17:54:58;;;;;;;;;;;;;;;19.28;99.59;101573.38;20542067;28;19926;-64
2022/06/27 18:05:19;;;;;;;;;;;;;;;19.28;99.56;101581.31;20519000;28;19933;-65
2022/06/27 18:15:41;;;;;;;;;;;;;;;19.27;99.16;101575.19;20519301;28;20394;-64
2022/06/27 18:26:03;;;;;;;;;;;;;;;19.30;97.76;101585.50;20539904;28;19926;-64
2022/06/27 18:36:25;;;;;;;;;;;;;;;19.20;96.57;101594.38;20524031;28;19926;-65
2022/06/27 18:46:46;;;;;;;;;;;;;;;19.25;95.57;101603.56;20532314;28;19931;-66
2022/06/27 18:57:08;;;;;;;;;;;;;;;19.23;95.83;101608.16;20533515;28;20577;-64
2022/06/27 19:07:30;;;;;;;;;;;;;;;19.26;96.69;101636.16;20540801;28;19932;-64
2022/06/27 19:17:53;;;;;;;;;;;;;;;19.15;99.52;101621.22;20530260;28;19930;-64
2022/06/27 19:28:14;;;;;;;;;;;;;;;19.11;97.88;101648.84;20552732;28;19926;-65
2022/06/27 19:38:37;;;;;;;;;;;;;;;19.06;99.49;101645.78;20535636;28;19926;-64
2022/06/27 19:48:58;;;;;;;;;;;;;;;18.96;99.31;101639.59;20540746;28;19937;-63
2022/06/27 19:59:20;;;;;;;;;;;;;;;18.91;100.00;101655.03;20540329;28;19933;-64
2022/06/27 20:09:41;;;;;;;;;;;;;;;18.92;100.00;101637.34;20559716;28;19937;-66
2022/06/27 20:20:10;;;;;;;;;;;;;;;18.94;97.94;101672.44;20532225;28;19936;-64
2022/06/27 20:30:32;;;;;;;;;;;;;;;18.87;100.00;101660.69;20533102;28;19926;-64
2022/06/27 20:40:57;;;;;;;;;;;;;;;18.88;97.89;101679.06;20543978;28;19989;-68
2022/06/27 20:51:19;;;;;;;;;;;;;;;18.92;96.37;101682.28;20544970;28;20013;-65
2022/06/27 21:01:42;;;;;;;;;;;;;;;18.77;97.92;101692.38;20525540;28;19930;-64
2022/06/27 21:12:04;;;;;;;;;;;;;;;18.78;96.89;101704.59;20534148;28;19933;-64
2022/06/27 21:22:25;;;;;;;;;;;;;;;18.65;98.89;101696.03;20523050;28;19956;-63
2022/06/27 21:32:46;;;;;;;;;;;;;;;18.69;99.33;101709.84;20542746;28;19926;-63
2022/06/27 21:43:08;;;;;;;;;;;;;;;18.68;99.38;101716.91;20539289;28;20413;-64
2022/06/27 21:53:30;;;;;;;;;;;;;;;18.61;98.15;101714.91;20534060;28;19926;-64
2022/06/27 22:03:51;;;;;;;;;;;;;;;18.50;99.85;101726.34;20542745;28;19934;-65
2022/06/27 22:14:13;;;;;;;;;;;;;;;18.41;100.00;101721.84;20518672;28;19934;-64
2022/06/27 22:24:34;;;;;;;;;;;;;;;18.41;100.00;101736.88;20521916;28;19930;-65
2022/06/27 22:34:56;;;;;;;;;;;;;;;18.41;100.00;101732.41;20527330;28;20392;-64
2022/06/27 22:45:17;;;;;;;;;;;;;;;18.35;100.00;101734.72;20516192;28;19934;-66
2022/06/27 22:55:39;;;;;;;;;;;;;;;18.27;100.00;101754.78;20547025;28;20367;-64
2022/06/27 23:06:00;;;;;;;8.90;7.13;;;;;;;18.25;100.00;101767.28;20518989;28;19937;-65
2022/06/27 23:16:22;;;;;;;9.10;7.18;;;;;;;18.17;100.00;101753.84;20523292;28;20047;-66
2022/06/27 23:26:43;;;;;;;;;;;;;;;18.02;99.41;101755.09;20508874;28;20046;-64
2022/06/27 23:37:05;;;;;;;;;;;;;;;17.89;99.23;101765.78;20503597;28;20327;-65
2022/06/27 23:47:28;;;;;;;;;;;;;;;17.85;98.91;101766.13;20514307;28;19933;-64
2022/06/27 23:57:50;;;;;;;;;;;;;;;17.69;97.29;101781.50;20508055;28;19926;-65
